createdAt,value
2022-08-07T00:02:40.016Z,4.00
2022-08-07T00:04:52.437Z,5.33
2022-08-07T00:07:20.632Z,4.00
2022-08-07T00:09:59.187Z,5.00
2022-08-07T00:12:33.885Z,3.00
2022-08-07T00:15:00.232Z,4.00
2022-08-07T00:17:26.786Z,4.00
2022-08-07T00:20:01.104Z,4.00
2022-08-07T00:22:35.315Z,4.00
2022-08-07T00:25:02.724Z,4.33
2022-08-07T00:27:52.778Z,3.00
2022-08-07T00:30:21.690Z,4.00
2022-08-07T00:32:54.209Z,4.33
2022-08-07T00:35:21.443Z,4.25
2022-08-07T00:37:49.626Z,3.67
2022-08-07T00:40:17.228Z,4.33
2022-08-07T00:43:03.595Z,5.67
2022-08-07T00:45:36.449Z,4.00
2022-08-07T00:48:10.420Z,4.00
2022-08-07T00:50:50.483Z,5.00
2022-08-07T00:53:20.134Z,4.00
2022-08-07T00:56:00.485Z,3.00
2022-08-07T00:58:28.833Z,3.67
2022-08-07T01:00:55.286Z,5.00
2022-08-07T01:03:25.487Z,4.00
2022-08-07T01:06:08.008Z,4.00
2022-08-07T01:08:34.582Z,4.00
2022-08-07T01:11:00.936Z,4.00
2022-08-07T01:13:55.906Z,4.00
2022-08-07T01:16:29.988Z,4.00
2022-08-07T01:18:57.134Z,4.67
2022-08-07T01:21:25.888Z,5.67
2022-08-07T01:23:52.596Z,5.00
2022-08-07T01:26:20.249Z,5.00
2022-08-07T01:28:48.214Z,4.33
2022-08-07T01:31:15.312Z,5.00
2022-08-07T01:33:54.034Z,5.00
2022-08-07T01:36:22.753Z,5.00
2022-08-07T01:39:00.592Z,4.00
2022-08-07T01:41:27.064Z,4.00
2022-08-07T01:43:53.481Z,5.33
2022-08-07T01:46:21.410Z,5.50
2022-08-07T01:48:47.883Z,7.00
2022-08-07T01:51:24.351Z,5.25
2022-08-07T01:54:12.414Z,4.67
2022-08-07T01:56:49.308Z,6.00
2022-08-07T01:59:16.049Z,6.00
2022-08-07T02:02:01.607Z,4.67
2022-08-07T02:04:28.888Z,6.00
2022-08-07T02:06:56.826Z,5.00
2022-08-07T02:09:52.461Z,4.67
2022-08-07T02:12:09.566Z,4.00
2022-08-07T02:14:40.757Z,5.00
2022-08-07T02:17:07.667Z,5.00
2022-08-07T02:20:05.247Z,3.67
2022-08-07T02:22:20.377Z,4.00
2022-08-07T02:24:46.790Z,8.00
2022-08-07T02:27:14.929Z,4.00
2022-08-07T02:29:48.668Z,4.00
2022-08-07T02:32:23.379Z,5.00
2022-08-07T02:34:51.406Z,7.00
2022-08-07T02:37:18.706Z,4.25
2022-08-07T02:40:02.008Z,4.00
2022-08-07T02:42:31.903Z,4.00
2022-08-07T02:44:58.516Z,5.00
2022-08-07T02:47:24.924Z,5.00
2022-08-07T02:49:58.592Z,4.00
2022-08-07T02:52:32.079Z,3.00
2022-08-07T02:54:58.640Z,5.00
2022-08-07T02:57:28.695Z,4.00
2022-08-07T03:00:01.110Z,4.00
2022-08-07T03:02:31.559Z,5.00
2022-08-07T03:04:58.798Z,4.00
2022-08-07T03:08:04.679Z,4.00
2022-08-07T03:10:12.347Z,4.50
2022-08-07T03:12:40.810Z,5.00
2022-08-07T03:15:07.715Z,3.33
2022-08-07T03:17:36.393Z,4.33
2022-08-07T03:20:21.363Z,5.50
2022-08-07T03:22:50.362Z,3.33
2022-08-07T03:25:16.796Z,5.33
2022-08-07T03:27:59.221Z,3.67
2022-08-07T03:30:26.322Z,4.00
2022-08-07T03:32:58.872Z,5.67
2022-08-07T03:35:27.303Z,4.33
2022-08-07T03:38:10.543Z,3.33
2022-08-07T03:40:39.638Z,4.00
2022-08-07T03:43:14.380Z,4.00
2022-08-07T03:45:43.710Z,6.00
2022-08-07T03:48:14.121Z,4.33
2022-08-07T03:50:52.121Z,5.00
2022-08-07T03:53:30.278Z,4.33
2022-08-07T03:56:10.189Z,3.33
2022-08-07T03:59:07.098Z,4.33
2022-08-07T04:01:26.538Z,3.67
2022-08-07T04:03:55.457Z,5.00
2022-08-07T04:06:37.594Z,4.67
2022-08-07T04:09:04.902Z,3.00
2022-08-07T04:12:23.500Z,6.00
2022-08-07T04:14:38.937Z,3.75
2022-08-07T04:17:05.257Z,3.00
2022-08-07T04:19:52.440Z,3.67
2022-08-07T04:22:22.988Z,5.00
2022-08-07T04:24:49.473Z,4.67
2022-08-07T04:27:35.950Z,4.00
2022-08-07T04:30:04.425Z,3.00
2022-08-07T04:32:34.281Z,4.00
2022-08-07T04:35:01.454Z,3.00
2022-08-07T04:37:30.413Z,2.00
2022-08-07T04:40:17.626Z,3.50
2022-08-07T04:42:46.184Z,3.67
2022-08-07T04:45:44.394Z,3.67
2022-08-07T04:48:10.916Z,4.00
2022-08-07T04:50:37.443Z,3.00
2022-08-07T04:53:06.036Z,3.00
2022-08-07T04:58:11.093Z,5.00
2022-08-07T04:58:32.072Z,3.67
2022-08-07T05:01:13.539Z,3.33
2022-08-07T05:03:59.877Z,3.33
2022-08-07T05:06:28.087Z,5.00
2022-08-07T05:09:00.958Z,3.00
2022-08-07T05:11:56.837Z,5.00
2022-08-07T05:14:53.190Z,2.00
2022-08-07T05:17:01.123Z,3.00
2022-08-07T05:19:44.143Z,4.00
2022-08-07T05:22:11.625Z,3.00
2022-08-07T05:24:40.688Z,4.00
2022-08-07T05:27:07.178Z,6.00
2022-08-07T05:29:53.724Z,4.00
2022-08-07T05:32:20.169Z,4.00
2022-08-07T05:34:48.151Z,5.00
2022-08-07T05:37:16.205Z,8.00
2022-08-07T05:40:13.850Z,7.00
2022-08-07T05:42:39.293Z,4.00
2022-08-07T05:45:25.783Z,5.00
2022-08-07T05:48:02.094Z,4.00
2022-08-07T05:50:29.180Z,3.67
2022-08-07T05:52:55.776Z,3.00
2022-08-07T05:55:22.111Z,3.00
2022-08-07T05:57:49.315Z,3.67
2022-08-07T06:00:19.570Z,3.00
2022-08-07T06:02:46.983Z,2.67
2022-08-07T06:05:15.589Z,3.00
2022-08-07T06:08:13.284Z,3.00
2022-08-07T06:10:28.732Z,3.00
2022-08-07T06:12:55.067Z,3.00
2022-08-07T06:15:21.419Z,2.33
2022-08-07T06:17:53.742Z,2.33
2022-08-07T06:20:31.838Z,1.00
2022-08-07T06:23:46.765Z,2.00
2022-08-07T06:25:57.028Z,3.00
2022-08-07T06:28:27.577Z,1.00
2022-08-07T06:30:58.144Z,1.00
2022-08-07T06:33:24.938Z,2.00
2022-08-07T06:36:12.415Z,2.00
2022-08-07T06:38:37.751Z,6.33
2022-08-07T06:41:04.441Z,2.00
2022-08-07T06:43:39.602Z,1.50
2022-08-07T06:46:06.522Z,2.00
2022-08-07T06:48:38.794Z,1.67
2022-08-07T06:51:09.447Z,1.00
2022-08-07T06:55:29.106Z,1.00
2022-08-07T06:56:25.685Z,2.00
2022-08-07T07:00:13.312Z,1.00
2022-08-07T07:01:48.933Z,2.67
2022-08-07T07:04:32.474Z,1.75
2022-08-07T07:07:00.915Z,1.67
2022-08-07T07:09:31.141Z,1.00
2022-08-07T07:12:07.747Z,2.00
2022-08-07T07:14:40.335Z,2.00
2022-08-07T07:17:06.966Z,2.33
2022-08-07T07:19:58.031Z,1.00
2022-08-07T07:22:39.810Z,2.00
2022-08-07T07:26:31.696Z,2.25
2022-08-07T07:28:02.698Z,2.00
2022-08-07T07:30:37.992Z,1.00
2022-08-07T07:33:06.313Z,2.00
2022-08-07T07:35:44.061Z,2.00
2022-08-07T07:38:20.576Z,2.00
2022-08-07T07:40:47.881Z,2.00
2022-08-07T07:43:18.612Z,2.00
2022-08-07T07:46:37.201Z,3.67
2022-08-07T07:48:35.833Z,2.00
2022-08-07T07:51:02.738Z,2.00
2022-08-07T07:53:34.947Z,2.00
2022-08-07T07:56:01.426Z,3.67
2022-08-07T07:58:30.583Z,1.50
2022-08-07T08:02:05.182Z,4.00
2022-08-07T08:04:10.961Z,2.00
2022-08-07T08:06:36.217Z,6.33
2022-08-07T08:09:03.019Z,2.00
2022-08-07T08:12:00.120Z,1.33
2022-08-07T08:14:15.657Z,2.00
2022-08-07T08:16:42.261Z,1.00
2022-08-07T08:20:15.682Z,1.00
2022-08-07T08:22:03.895Z,1.00
2022-08-07T08:24:44.967Z,0.67
2022-08-07T08:27:17.375Z,1.00
2022-08-07T08:29:55.584Z,1.00
2022-08-07T08:32:25.030Z,2.67
2022-08-07T08:34:52.010Z,2.67
2022-08-07T08:37:59.606Z,1.00
2022-08-07T08:40:04.802Z,1.00
2022-08-07T08:42:41.340Z,1.00
2022-08-07T08:45:12.998Z,2.00
2022-08-07T08:47:51.907Z,1.00
2022-08-07T08:50:28.624Z,2.00
2022-08-07T08:53:05.734Z,2.33
2022-08-07T08:55:54.413Z,1.00
2022-08-07T08:58:28.449Z,1.00
2022-08-07T09:00:58.339Z,1.00
2022-08-07T09:03:47.573Z,1.00
2022-08-07T09:06:14.534Z,1.00
2022-08-07T09:08:41.788Z,1.33
2022-08-07T09:11:10.910Z,1.00
2022-08-07T09:13:40.450Z,1.00
2022-08-07T09:16:20.289Z,1.00
2022-08-07T09:18:53.132Z,1.67
2022-08-07T09:21:57.885Z,1.67
2022-08-07T09:24:30.925Z,1.00
2022-08-07T09:26:57.347Z,0.00
2022-08-07T09:30:03.367Z,2.00
2022-08-07T09:32:17.222Z,1.00
2022-08-07T09:34:45.091Z,2.00
2022-08-07T09:37:20.445Z,1.00
2022-08-07T09:40:02.834Z,1.00
2022-08-07T09:42:33.756Z,1.00
2022-08-07T09:46:28.547Z,2.67
2022-08-07T09:47:59.591Z,0.67
2022-08-07T09:50:30.317Z,2.00
2022-08-07T09:52:56.713Z,1.33
2022-08-07T09:55:36.827Z,1.00
2022-08-07T09:58:09.481Z,1.00
2022-08-07T10:00:41.038Z,2.00
2022-08-07T10:04:05.163Z,0.00
2022-08-07T10:06:00.030Z,1.00
2022-08-07T10:08:28.999Z,0.33
2022-08-07T10:11:16.802Z,1.00
2022-08-07T10:14:01.027Z,1.00
2022-08-07T10:16:31.382Z,0.17
2022-08-07T10:19:00.792Z,1.00
2022-08-07T10:22:01.184Z,0.33
2022-08-07T10:24:18.423Z,1.33
2022-08-07T10:26:53.251Z,2.00
2022-08-07T10:29:19.829Z,1.00
2022-08-07T10:31:46.157Z,1.00
2022-08-07T10:34:27.339Z,0.83
2022-08-07T10:37:04.121Z,1.00
2022-08-07T10:39:41.942Z,1.00
2022-08-07T10:42:21.310Z,0.00
2022-08-07T10:44:57.769Z,0.00
2022-08-07T10:47:26.577Z,1.00
2022-08-07T10:50:00.453Z,0.83
2022-08-07T10:52:31.939Z,2.00
2022-08-07T10:55:21.268Z,1.00
2022-08-07T10:57:56.278Z,0.67
2022-08-07T11:00:36.780Z,2.00
2022-08-07T11:03:11.367Z,0.33
2022-08-07T11:05:49.207Z,1.50
2022-08-07T11:08:17.664Z,1.00
2022-08-07T11:10:49.990Z,1.00
2022-08-07T11:14:42.402Z,1.00
2022-08-07T11:16:11.006Z,1.00
2022-08-07T11:18:40.146Z,1.00
2022-08-07T11:21:10.365Z,1.17
2022-08-07T11:23:40.562Z,1.67
2022-08-07T11:26:06.913Z,1.00
2022-08-07T11:28:33.252Z,1.00
2022-08-07T11:30:59.582Z,0.00
2022-08-07T11:33:59.771Z,1.00
2022-08-07T11:36:12.421Z,1.00
2022-08-07T11:38:42.456Z,0.17
2022-08-07T11:41:22.406Z,0.00
2022-08-07T11:44:12.162Z,0.33
2022-08-07T11:46:39.323Z,1.00
2022-08-07T11:49:28.611Z,1.00
2022-08-07T11:51:52.048Z,1.00
2022-08-07T11:54:22.124Z,0.00
2022-08-07T11:56:53.036Z,1.00
2022-08-07T12:00:10.211Z,1.00
2022-08-07T12:02:10.180Z,0.33
2022-08-07T12:04:46.834Z,1.00
2022-08-07T12:07:20.346Z,0.33
2022-08-07T12:09:53.333Z,0.00
2022-08-07T12:12:19.657Z,1.00
2022-08-07T12:14:46.062Z,1.00
2022-08-07T12:17:22.192Z,1.00
2022-08-07T12:20:02.634Z,1.00
2022-08-07T12:22:38.899Z,1.00
2022-08-07T12:26:03.522Z,1.00
2022-08-07T12:28:09.343Z,0.67
2022-08-07T12:30:36.788Z,1.33
2022-08-07T12:33:18.632Z,1.67
2022-08-07T12:35:48.312Z,1.33
2022-08-07T12:38:38.623Z,0.33
2022-08-07T12:41:10.121Z,1.00
2022-08-07T12:44:02.791Z,0.33
2022-08-07T12:46:26.277Z,1.00
2022-08-07T12:48:58.974Z,1.00
2022-08-07T12:51:51.523Z,1.00
2022-08-07T12:54:37.379Z,0.00
2022-08-07T12:57:09.643Z,1.00
2022-08-07T12:59:54.712Z,1.00
2022-08-07T13:02:22.135Z,1.00
2022-08-07T13:05:01.666Z,1.00
2022-08-07T13:08:12.884Z,0.00
2022-08-07T13:10:37.075Z,0.00
2022-08-07T13:13:06.939Z,0.83
2022-08-07T13:15:33.277Z,1.67
2022-08-07T13:17:59.686Z,0.67
2022-08-07T13:20:27.496Z,1.00
2022-08-07T13:22:54.230Z,0.33
2022-08-07T13:25:28.879Z,1.00
2022-08-07T13:28:12.604Z,0.33
2022-08-07T13:30:48.676Z,1.00
2022-08-07T13:34:31.877Z,1.00
2022-08-07T13:36:07.892Z,1.00
2022-08-07T13:38:34.254Z,1.33
2022-08-07T13:41:03.515Z,1.00
2022-08-07T13:43:29.862Z,1.00
2022-08-07T13:46:11.976Z,2.00
2022-08-07T13:48:52.011Z,1.00
2022-08-07T13:52:22.682Z,1.00
2022-08-07T13:54:16.373Z,1.00
2022-08-07T13:56:52.173Z,0.00
2022-08-07T13:59:22.313Z,1.33
2022-08-07T14:02:04.088Z,1.00
2022-08-07T14:04:36.190Z,1.00
2022-08-07T14:07:06.543Z,1.50
2022-08-07T14:10:01.534Z,1.50
2022-08-07T14:12:28.062Z,0.33
2022-08-07T14:14:57.378Z,1.17
2022-08-07T14:18:13.598Z,1.67
2022-08-07T14:20:43.229Z,1.00
2022-08-07T14:23:02.654Z,0.00
2022-08-07T14:25:39.582Z,1.00
2022-08-07T14:28:13.778Z,1.00
2022-08-07T14:30:40.577Z,2.00
2022-08-07T14:33:07.161Z,1.00
2022-08-07T14:35:42.945Z,1.00
2022-08-07T14:38:26.588Z,1.00
2022-08-07T14:40:57.338Z,1.00
2022-08-07T14:43:57.141Z,1.00
2022-08-07T14:46:13.551Z,1.00
2022-08-07T14:48:48.449Z,1.00
2022-08-07T14:51:17.238Z,1.00
2022-08-07T14:56:30.591Z,1.33
2022-08-07T14:58:56.972Z,0.33
2022-08-07T15:01:26.127Z,1.33
2022-08-07T15:04:08.650Z,1.00
2022-08-07T15:06:37.686Z,2.00
2022-08-07T15:09:04.026Z,1.00
2022-08-07T15:12:01.254Z,1.00
2022-08-07T15:14:30.679Z,1.00
2022-08-07T15:17:00.632Z,1.33
2022-08-07T15:22:33.473Z,1.00
2022-08-07T15:25:17.673Z,1.00
2022-08-07T15:28:32.905Z,2.00
2022-08-07T15:31:05.166Z,1.00
2022-08-07T15:36:10.679Z,1.33
2022-08-07T15:38:51.159Z,2.00
2022-08-07T15:41:23.696Z,1.00
2022-08-07T15:44:04.970Z,2.00
2022-08-07T15:46:38.584Z,2.00
2022-08-07T15:49:16.470Z,1.67
2022-08-07T15:54:24.277Z,3.00
2022-08-07T15:56:52.774Z,2.67
2022-08-07T15:59:19.148Z,2.00
2022-08-07T16:02:02.446Z,1.00
2022-08-07T16:04:29.155Z,2.33
2022-08-07T16:06:58.421Z,1.00
2022-08-07T16:09:41.162Z,1.00
2022-08-07T16:12:12.154Z,2.33
2022-08-07T16:14:38.784Z,1.00
2022-08-07T16:17:14.989Z,1.00
2022-08-07T16:19:59.072Z,2.00
2022-08-07T16:22:33.907Z,1.00
2022-08-07T16:25:02.345Z,2.00
2022-08-07T16:27:40.685Z,2.00
2022-08-07T16:30:30.317Z,2.00
2022-08-07T16:32:54.945Z,0.00
2022-08-07T16:35:52.351Z,1.00
2022-08-07T16:38:09.778Z,1.00
2022-08-07T16:40:56.966Z,1.00
2022-08-07T16:43:24.422Z,1.67
2022-08-07T16:47:03.484Z,1.00
2022-08-07T16:50:26.604Z,1.00
2022-08-07T16:52:01.847Z,1.00
2022-08-07T16:54:33.067Z,2.00
2022-08-07T16:57:00.916Z,2.00
2022-08-07T16:59:46.217Z,2.00
2022-08-07T17:02:13.507Z,1.00
2022-08-07T17:04:59.851Z,2.00
2022-08-07T17:07:28.469Z,1.33
2022-08-07T17:10:33.040Z,1.67
2022-08-07T17:13:01.070Z,1.00
2022-08-07T17:15:44.279Z,1.00
2022-08-07T17:18:16.126Z,2.33
2022-08-07T17:20:42.688Z,2.00
2022-08-07T17:23:15.874Z,1.00
2022-08-07T17:25:47.369Z,2.00
2022-08-07T17:28:17.687Z,2.00
2022-08-07T17:30:58.033Z,2.00
2022-08-07T17:34:08.791Z,2.00
2022-08-07T17:36:13.633Z,2.00
2022-08-07T17:38:47.059Z,1.00
2022-08-07T17:42:03.446Z,2.00
2022-08-07T17:44:06.515Z,3.00
2022-08-07T17:46:37.020Z,3.00
2022-08-07T17:49:09.148Z,3.00
2022-08-07T17:52:00.895Z,3.33
2022-08-07T17:54:29.571Z,4.33
2022-08-07T17:57:18.689Z,4.00
2022-08-07T17:59:45.728Z,2.00
2022-08-07T18:02:17.053Z,2.00
2022-08-07T18:04:49.671Z,3.00
2022-08-07T18:07:20.199Z,2.33
2022-08-07T18:10:07.355Z,4.00
2022-08-07T18:12:36.691Z,4.00
2022-08-07T18:15:08.371Z,4.00
2022-08-07T18:18:47.450Z,3.00
2022-08-07T18:21:11.607Z,4.33
2022-08-07T18:23:42.768Z,4.67
2022-08-07T18:26:01.328Z,2.33
2022-08-07T18:28:33.999Z,3.33
2022-08-07T18:31:01.095Z,5.33
2022-08-07T18:33:27.563Z,4.67
2022-08-07T18:35:55.805Z,3.33
2022-08-07T18:38:57.524Z,5.00
2022-08-07T18:41:17.140Z,5.00
2022-08-07T18:43:48.913Z,6.67
2022-08-07T18:46:25.081Z,5.00
2022-08-07T18:50:19.274Z,6.00
2022-08-07T18:52:33.560Z,7.00
2022-08-07T18:54:27.897Z,6.00
2022-08-07T18:57:29.478Z,5.33
2022-08-07T18:59:59.421Z,5.00
2022-08-07T19:02:34.345Z,7.67
2022-08-07T19:05:10.671Z,6.33
2022-08-07T19:07:51.726Z,6.00
2022-08-07T19:10:24.014Z,6.00
2022-08-07T19:12:59.546Z,6.33
2022-08-07T19:16:05.959Z,4.67
2022-08-07T19:18:34.479Z,7.00
2022-08-07T19:21:08.972Z,7.00
2022-08-07T19:23:58.061Z,5.33
2022-08-07T19:26:29.104Z,7.00
2022-08-07T19:30:56.435Z,7.00
2022-08-07T19:32:10.808Z,6.00
2022-08-07T19:34:34.304Z,7.33
2022-08-07T19:37:09.831Z,7.00
2022-08-07T19:39:57.782Z,10.50
2022-08-07T19:42:30.405Z,7.25
2022-08-07T19:44:58.957Z,7.75
2022-08-07T19:47:27.737Z,7.67
2022-08-07T19:49:58.346Z,7.00
2022-08-07T19:52:30.283Z,7.75
2022-08-07T19:54:57.712Z,8.50
2022-08-07T19:58:02.492Z,9.00
2022-08-07T20:00:11.334Z,8.67
2022-08-07T20:02:54.510Z,9.00
2022-08-07T20:05:21.359Z,8.00
2022-08-07T20:07:51.055Z,9.00
2022-08-07T20:10:35.351Z,12.00
2022-08-07T20:13:06.059Z,9.00
2022-08-07T20:15:37.080Z,10.00
2022-08-07T20:18:05.612Z,62.50
2022-08-07T20:20:32.095Z,17.50
2022-08-07T20:22:59.106Z,34.50
2022-08-07T20:25:27.824Z,27.00
2022-08-07T20:27:58.537Z,17.00
2022-08-07T20:30:29.864Z,11.00
2022-08-07T20:32:57.381Z,11.50
2022-08-07T20:35:27.239Z,12.00
2022-08-07T20:37:58.379Z,11.50
2022-08-07T20:40:33.367Z,10.80
2022-08-07T20:43:01.068Z,10.00
2022-08-07T20:45:33.696Z,13.00
2022-08-07T20:48:28.963Z,13.00
2022-08-07T20:50:59.636Z,11.00
2022-08-07T20:54:03.433Z,10.50
2022-08-07T20:56:12.650Z,9.50
2022-08-07T20:58:42.629Z,12.00
2022-08-07T21:01:19.479Z,14.14
2022-08-07T21:04:07.212Z,11.00
2022-08-07T21:06:33.253Z,11.00
2022-08-07T21:09:00.008Z,13.00
2022-08-07T21:11:40.360Z,44.33
2022-08-07T21:14:31.973Z,18.50
2022-08-07T21:18:00.614Z,12.00
2022-08-07T21:19:51.497Z,13.00
2022-08-07T21:22:33.398Z,15.50
2022-08-07T21:25:00.033Z,13.00
2022-08-07T21:27:40.031Z,11.00
2022-08-07T21:30:14.539Z,14.00
2022-08-07T21:32:50.190Z,12.50
2022-08-07T21:35:18.537Z,14.50
2022-08-07T21:38:04.979Z,14.00
2022-08-07T21:40:36.050Z,13.50
2022-08-07T21:43:06.412Z,13.80
2022-08-07T21:46:05.437Z,12.00
2022-08-07T21:48:28.452Z,14.00
2022-08-07T21:50:59.875Z,13.50
2022-08-07T21:53:28.250Z,11.00
2022-08-07T21:55:55.596Z,10.00
2022-08-07T21:58:30.459Z,13.50
2022-08-07T22:01:00.182Z,13.67
2022-08-07T22:03:31.072Z,13.33
2022-08-07T22:05:59.054Z,13.33
2022-08-07T22:08:25.621Z,13.50
2022-08-07T22:10:52.133Z,11.00
2022-08-07T22:13:23.904Z,14.00
2022-08-07T22:16:44.837Z,12.33
2022-08-07T22:18:38.522Z,11.50
2022-08-07T22:21:07.467Z,13.00
2022-08-07T22:23:40.529Z,10.50
2022-08-07T22:26:07.676Z,11.00
2022-08-07T22:28:35.416Z,10.00
2022-08-07T22:31:04.906Z,10.40
2022-08-07T22:33:51.009Z,11.00
2022-08-07T22:36:18.460Z,9.50
2022-08-07T22:38:48.495Z,12.50
2022-08-07T22:41:14.966Z,11.50
2022-08-07T22:43:41.461Z,12.50
2022-08-07T22:46:56.052Z,9.83
2022-08-07T22:49:06.531Z,11.00
2022-08-07T22:51:36.761Z,12.00
2022-08-07T22:54:06.453Z,14.00
2022-08-07T22:56:37.386Z,11.60
2022-08-07T22:59:05.009Z,14.33
2022-08-07T23:01:41.916Z,13.67
2022-08-07T23:04:16.256Z,12.00
2022-08-07T23:06:42.975Z,12.00
2022-08-07T23:10:04.946Z,13.00
2022-08-07T23:12:05.102Z,11.00
2022-08-07T23:14:32.156Z,11.50
2022-08-07T23:16:58.693Z,11.00
2022-08-07T23:19:48.288Z,11.50
2022-08-07T23:22:12.732Z,11.00
2022-08-07T23:24:45.399Z,16.00
2022-08-07T23:27:13.336Z,16.00
2022-08-07T23:29:43.413Z,13.00
2022-08-07T23:34:19.740Z,16.00
2022-08-07T23:35:12.640Z,15.00
2022-08-07T23:38:01.278Z,16.33
2022-08-07T23:40:26.527Z,19.00
2022-08-07T23:42:53.967Z,15.00
2022-08-07T23:45:33.563Z,18.67
2022-08-07T23:48:07.992Z,18.00
2022-08-07T23:50:36.752Z,20.00
2022-08-07T23:53:06.395Z,22.00
2022-08-07T23:55:52.987Z,19.00
2022-08-07T23:58:24.104Z,22.00
